sensor_id;sensor_type;location;lat;lon;timestamp;P1;durP1;ratioP1;P2;durP2;ratioP2
73557;SDS011;61829;53.286;10.434;2023-02-28T00:00:21;15.02;;;7.50;;
73557;SDS011;61829;53.286;10.434;2023-02-28T00:03:07;16.40;;;7.30;;
73557;SDS011;61829;53.286;10.434;2023-02-28T00:05:33;16.75;;;7.75;;
73557;SDS011;61829;53.286;10.434;2023-02-28T00:07:59;18.50;;;7.68;;
73557;SDS011;61829;53.286;10.434;2023-02-28T00:10:26;19.63;;;7.65;;
73557;SDS011;61829;53.286;10.434;2023-02-28T00:12:54;13.52;;;7.25;;
73557;SDS011;61829;53.286;10.434;2023-02-28T00:15:24;15.98;;;7.43;;
73557;SDS011;61829;53.286;10.434;2023-02-28T00:17:50;13.98;;;6.72;;
73557;SDS011;61829;53.286;10.434;2023-02-28T00:20:17;16.88;;;7.10;;
73557;SDS011;61829;53.286;10.434;2023-02-28T00:22:44;17.55;;;8.35;;
73557;SDS011;61829;53.286;10.434;2023-02-28T00:25:12;14.93;;;6.65;;
73557;SDS011;61829;53.286;10.434;2023-02-28T00:27:39;14.90;;;8.10;;
73557;SDS011;61829;53.286;10.434;2023-02-28T00:30:08;11.60;;;6.03;;
73557;SDS011;61829;53.286;10.434;2023-02-28T00:32:37;16.65;;;7.70;;
73557;SDS011;61829;53.286;10.434;2023-02-28T00:35:04;13.50;;;7.07;;
73557;SDS011;61829;53.286;10.434;2023-02-28T00:37:30;15.60;;;7.25;;
73557;SDS011;61829;53.286;10.434;2023-02-28T00:39:56;13.05;;;6.40;;
73557;SDS011;61829;53.286;10.434;2023-02-28T00:42:22;16.00;;;6.85;;
73557;SDS011;61829;53.286;10.434;2023-02-28T00:44:49;14.20;;;7.25;;
73557;SDS011;61829;53.286;10.434;2023-02-28T00:47:14;12.48;;;6.80;;
73557;SDS011;61829;53.286;10.434;2023-02-28T00:49:41;15.43;;;7.30;;
73557;SDS011;61829;53.286;10.434;2023-02-28T00:52:07;18.70;;;7.13;;
73557;SDS011;61829;53.286;10.434;2023-02-28T00:54:33;13.98;;;7.20;;
73557;SDS011;61829;53.286;10.434;2023-02-28T00:56:59;15.77;;;6.25;;
73557;SDS011;61829;53.286;10.434;2023-02-28T00:59:24;12.73;;;6.60;;
73557;SDS011;61829;53.286;10.434;2023-02-28T01:01:50;13.65;;;6.28;;
73557;SDS011;61829;53.286;10.434;2023-02-28T01:04:16;15.30;;;7.18;;
73557;SDS011;61829;53.286;10.434;2023-02-28T01:06:42;14.52;;;6.90;;
73557;SDS011;61829;53.286;10.434;2023-02-28T01:09:09;17.33;;;7.50;;
73557;SDS011;61829;53.286;10.434;2023-02-28T01:11:35;18.40;;;7.10;;
73557;SDS011;61829;53.286;10.434;2023-02-28T01:14:02;16.25;;;7.45;;
73557;SDS011;61829;53.286;10.434;2023-02-28T01:16:29;11.82;;;5.97;;
73557;SDS011;61829;53.286;10.434;2023-02-28T01:18:56;19.23;;;7.75;;
73557;SDS011;61829;53.286;10.434;2023-02-28T01:21:22;16.17;;;6.72;;
73557;SDS011;61829;53.286;10.434;2023-02-28T01:23:49;14.85;;;6.68;;
73557;SDS011;61829;53.286;10.434;2023-02-28T01:28:46;15.40;;;7.28;;
73557;SDS011;61829;53.286;10.434;2023-02-28T01:31:13;17.13;;;7.32;;
73557;SDS011;61829;53.286;10.434;2023-02-28T01:33:40;19.42;;;7.13;;
73557;SDS011;61829;53.286;10.434;2023-02-28T01:36:07;16.15;;;6.68;;
73557;SDS011;61829;53.286;10.434;2023-02-28T01:38:36;16.52;;;6.57;;
73557;SDS011;61829;53.286;10.434;2023-02-28T01:41:02;14.32;;;6.28;;
73557;SDS011;61829;53.286;10.434;2023-02-28T01:43:30;20.77;;;6.35;;
73557;SDS011;61829;53.286;10.434;2023-02-28T01:45:58;15.35;;;6.85;;
73557;SDS011;61829;53.286;10.434;2023-02-28T01:48:32;12.90;;;5.65;;
73557;SDS011;61829;53.286;10.434;2023-02-28T01:51:06;17.33;;;6.78;;
73557;SDS011;61829;53.286;10.434;2023-02-28T01:53:39;15.10;;;5.72;;
73557;SDS011;61829;53.286;10.434;2023-02-28T01:56:09;14.57;;;5.93;;
73557;SDS011;61829;53.286;10.434;2023-02-28T01:58:39;13.95;;;5.32;;
73557;SDS011;61829;53.286;10.434;2023-02-28T02:01:05;13.63;;;6.65;;
73557;SDS011;61829;53.286;10.434;2023-02-28T02:03:31;13.02;;;6.00;;
73557;SDS011;61829;53.286;10.434;2023-02-28T02:05:57;15.45;;;5.50;;
73557;SDS011;61829;53.286;10.434;2023-02-28T02:08:23;10.57;;;5.22;;
73557;SDS011;61829;53.286;10.434;2023-02-28T02:10:55;15.20;;;5.90;;
73557;SDS011;61829;53.286;10.434;2023-02-28T02:16:18;14.73;;;4.97;;
73557;SDS011;61829;53.286;10.434;2023-02-28T02:18:53;9.85;;;4.47;;
73557;SDS011;61829;53.286;10.434;2023-02-28T02:38:10;9.23;;;4.68;;
73557;SDS011;61829;53.286;10.434;2023-02-28T02:44:05;6.28;;;3.13;;
73557;SDS011;61829;53.286;10.434;2023-02-28T02:46:39;7.50;;;3.47;;
73557;SDS011;61829;53.286;10.434;2023-02-28T02:49:21;7.55;;;3.13;;
73557;SDS011;61829;53.286;10.434;2023-02-28T02:51:51;8.15;;;3.15;;
73557;SDS011;61829;53.286;10.434;2023-02-28T02:54:23;7.75;;;3.85;;
73557;SDS011;61829;53.286;10.434;2023-02-28T02:56:55;7.88;;;3.15;;
73557;SDS011;61829;53.286;10.434;2023-02-28T02:59:24;6.40;;;3.50;;
73557;SDS011;61829;53.286;10.434;2023-02-28T03:01:59;9.35;;;3.80;;
73557;SDS011;61829;53.286;10.434;2023-02-28T03:04:29;7.63;;;3.88;;
73557;SDS011;61829;53.286;10.434;2023-02-28T03:07:00;11.30;;;3.92;;
73557;SDS011;61829;53.286;10.434;2023-02-28T03:09:26;5.70;;;3.30;;
73557;SDS011;61829;53.286;10.434;2023-02-28T03:11:52;9.05;;;3.85;;
73557;SDS011;61829;53.286;10.434;2023-02-28T03:17:08;6.85;;;3.47;;
73557;SDS011;61829;53.286;10.434;2023-02-28T03:22:30;7.88;;;3.63;;
73557;SDS011;61829;53.286;10.434;2023-02-28T03:25:08;8.35;;;3.50;;
73557;SDS011;61829;53.286;10.434;2023-02-28T03:33:08;5.20;;;3.17;;
73557;SDS011;61829;53.286;10.434;2023-02-28T03:38:46;5.70;;;3.25;;
73557;SDS011;61829;53.286;10.434;2023-02-28T03:41:40;7.63;;;3.38;;
73557;SDS011;61829;53.286;10.434;2023-02-28T03:44:16;8.55;;;3.28;;
73557;SDS011;61829;53.286;10.434;2023-02-28T03:46:58;10.20;;;3.90;;
73557;SDS011;61829;53.286;10.434;2023-02-28T03:49:36;8.43;;;3.40;;
73557;SDS011;61829;53.286;10.434;2023-02-28T03:54:45;7.68;;;3.10;;
73557;SDS011;61829;53.286;10.434;2023-02-28T03:57:18;7.38;;;3.08;;
73557;SDS011;61829;53.286;10.434;2023-02-28T03:59:59;7.68;;;3.40;;
73557;SDS011;61829;53.286;10.434;2023-02-28T04:02:37;10.48;;;3.67;;
73557;SDS011;61829;53.286;10.434;2023-02-28T04:05:04;6.47;;;2.85;;
73557;SDS011;61829;53.286;10.434;2023-02-28T04:07:33;7.10;;;3.10;;
73557;SDS011;61829;53.286;10.434;2023-02-28T04:10:02;7.72;;;3.33;;
73557;SDS011;61829;53.286;10.434;2023-02-28T04:12:28;9.75;;;3.35;;
73557;SDS011;61829;53.286;10.434;2023-02-28T04:14:55;8.18;;;2.95;;
73557;SDS011;61829;53.286;10.434;2023-02-28T04:17:20;8.82;;;3.25;;
73557;SDS011;61829;53.286;10.434;2023-02-28T04:19:46;7.28;;;3.08;;
73557;SDS011;61829;53.286;10.434;2023-02-28T04:22:12;9.70;;;3.90;;
73557;SDS011;61829;53.286;10.434;2023-02-28T04:24:39;9.70;;;3.58;;
73557;SDS011;61829;53.286;10.434;2023-02-28T04:29:32;4.78;;;2.80;;
73557;SDS011;61829;53.286;10.434;2023-02-28T04:31:58;8.25;;;3.75;;
73557;SDS011;61829;53.286;10.434;2023-02-28T04:34:26;10.07;;;3.33;;
73557;SDS011;61829;53.286;10.434;2023-02-28T04:36:53;4.82;;;2.83;;
73557;SDS011;61829;53.286;10.434;2023-02-28T04:39:21;7.18;;;3.88;;
73557;SDS011;61829;53.286;10.434;2023-02-28T04:41:47;11.10;;;3.97;;
73557;SDS011;61829;53.286;10.434;2023-02-28T04:44:13;6.03;;;3.03;;
73557;SDS011;61829;53.286;10.434;2023-02-28T04:46:39;9.05;;;3.17;;
73557;SDS011;61829;53.286;10.434;2023-02-28T04:49:06;5.18;;;2.85;;
73557;SDS011;61829;53.286;10.434;2023-02-28T04:51:31;8.85;;;3.15;;
73557;SDS011;61829;53.286;10.434;2023-02-28T04:53:57;6.85;;;3.50;;
73557;SDS011;61829;53.286;10.434;2023-02-28T04:56:23;11.68;;;3.55;;
73557;SDS011;61829;53.286;10.434;2023-02-28T04:58:49;6.38;;;3.25;;
73557;SDS011;61829;53.286;10.434;2023-02-28T05:01:19;7.45;;;3.15;;
73557;SDS011;61829;53.286;10.434;2023-02-28T05:03:57;9.80;;;3.72;;
73557;SDS011;61829;53.286;10.434;2023-02-28T05:06:25;10.30;;;4.68;;
73557;SDS011;61829;53.286;10.434;2023-02-28T05:08:53;16.50;;;6.18;;
73557;SDS011;61829;53.286;10.434;2023-02-28T05:11:26;11.38;;;4.65;;
73557;SDS011;61829;53.286;10.434;2023-02-28T05:14:00;13.75;;;6.68;;
73557;SDS011;61829;53.286;10.434;2023-02-28T05:16:30;12.82;;;5.15;;
73557;SDS011;61829;53.286;10.434;2023-02-28T05:18:57;12.48;;;4.72;;
73557;SDS011;61829;53.286;10.434;2023-02-28T05:23:54;11.27;;;4.75;;
73557;SDS011;61829;53.286;10.434;2023-02-28T05:26:21;7.38;;;3.60;;
73557;SDS011;61829;53.286;10.434;2023-02-28T05:28:48;8.18;;;4.03;;
73557;SDS011;61829;53.286;10.434;2023-02-28T05:31:14;6.55;;;3.38;;
73557;SDS011;61829;53.286;10.434;2023-02-28T05:33:40;8.77;;;3.72;;
73557;SDS011;61829;53.286;10.434;2023-02-28T05:36:06;9.57;;;4.18;;
73557;SDS011;61829;53.286;10.434;2023-02-28T05:38:33;9.02;;;3.83;;
73557;SDS011;61829;53.286;10.434;2023-02-28T05:40:58;8.73;;;4.38;;
73557;SDS011;61829;53.286;10.434;2023-02-28T05:43:25;9.55;;;4.03;;
73557;SDS011;61829;53.286;10.434;2023-02-28T05:45:50;8.68;;;3.47;;
73557;SDS011;61829;53.286;10.434;2023-02-28T05:48:16;6.15;;;2.75;;
73557;SDS011;61829;53.286;10.434;2023-02-28T05:50:43;7.70;;;3.35;;
73557;SDS011;61829;53.286;10.434;2023-02-28T05:53:11;9.35;;;3.90;;
73557;SDS011;61829;53.286;10.434;2023-02-28T05:55:37;8.27;;;3.22;;
73557;SDS011;61829;53.286;10.434;2023-02-28T05:58:04;10.48;;;3.90;;
73557;SDS011;61829;53.286;10.434;2023-02-28T06:00:30;6.25;;;3.42;;
73557;SDS011;61829;53.286;10.434;2023-02-28T06:02:56;5.88;;;3.20;;
73557;SDS011;61829;53.286;10.434;2023-02-28T06:05:25;9.63;;;3.35;;
73557;SDS011;61829;53.286;10.434;2023-02-28T06:07:51;6.68;;;3.63;;
73557;SDS011;61829;53.286;10.434;2023-02-28T06:10:17;12.63;;;5.25;;
73557;SDS011;61829;53.286;10.434;2023-02-28T06:12:43;9.18;;;4.50;;
73557;SDS011;61829;53.286;10.434;2023-02-28T06:15:14;17.02;;;5.38;;
73557;SDS011;61829;53.286;10.434;2023-02-28T06:17:41;15.60;;;6.63;;
73557;SDS011;61829;53.286;10.434;2023-02-28T06:20:08;19.98;;;6.55;;
73557;SDS011;61829;53.286;10.434;2023-02-28T06:22:35;16.65;;;5.70;;
73557;SDS011;61829;53.286;10.434;2023-02-28T06:25:02;13.93;;;6.55;;
73557;SDS011;61829;53.286;10.434;2023-02-28T06:27:28;24.30;;;7.60;;
73557;SDS011;61829;53.286;10.434;2023-02-28T06:29:56;20.60;;;7.38;;
73557;SDS011;61829;53.286;10.434;2023-02-28T06:32:22;25.17;;;7.95;;
73557;SDS011;61829;53.286;10.434;2023-02-28T06:37:35;15.30;;;5.75;;
73557;SDS011;61829;53.286;10.434;2023-02-28T06:40:01;20.50;;;6.55;;
73557;SDS011;61829;53.286;10.434;2023-02-28T06:42:28;16.17;;;6.03;;
73557;SDS011;61829;53.286;10.434;2023-02-28T06:44:55;16.88;;;6.47;;
73557;SDS011;61829;53.286;10.434;2023-02-28T06:47:22;20.50;;;7.45;;
73557;SDS011;61829;53.286;10.434;2023-02-28T06:49:48;16.70;;;6.63;;
73557;SDS011;61829;53.286;10.434;2023-02-28T06:52:14;16.55;;;6.00;;
73557;SDS011;61829;53.286;10.434;2023-02-28T06:54:40;21.20;;;6.45;;
73557;SDS011;61829;53.286;10.434;2023-02-28T06:57:06;15.85;;;5.93;;
73557;SDS011;61829;53.286;10.434;2023-02-28T06:59:32;15.38;;;5.45;;
73557;SDS011;61829;53.286;10.434;2023-02-28T07:01:58;9.40;;;5.25;;
73557;SDS011;61829;53.286;10.434;2023-02-28T07:04:24;10.45;;;4.80;;
73557;SDS011;61829;53.286;10.434;2023-02-28T07:06:51;13.50;;;4.63;;
73557;SDS011;61829;53.286;10.434;2023-02-28T07:09:16;14.57;;;5.20;;
73557;SDS011;61829;53.286;10.434;2023-02-28T07:11:42;13.63;;;5.72;;
73557;SDS011;61829;53.286;10.434;2023-02-28T07:14:08;16.20;;;7.35;;
73557;SDS011;61829;53.286;10.434;2023-02-28T07:16:35;10.63;;;5.30;;
73557;SDS011;61829;53.286;10.434;2023-02-28T07:19:00;9.65;;;5.50;;
73557;SDS011;61829;53.286;10.434;2023-02-28T07:21:26;10.85;;;5.20;;
73557;SDS011;61829;53.286;10.434;2023-02-28T07:23:52;8.68;;;5.07;;
73557;SDS011;61829;53.286;10.434;2023-02-28T07:26:19;11.75;;;5.60;;
73557;SDS011;61829;53.286;10.434;2023-02-28T07:28:46;12.63;;;6.15;;
73557;SDS011;61829;53.286;10.434;2023-02-28T07:31:13;15.55;;;5.80;;
73557;SDS011;61829;53.286;10.434;2023-02-28T07:33:39;13.13;;;5.95;;
73557;SDS011;61829;53.286;10.434;2023-02-28T07:36:07;9.73;;;6.18;;
73557;SDS011;61829;53.286;10.434;2023-02-28T07:38:41;14.95;;;6.18;;
73557;SDS011;61829;53.286;10.434;2023-02-28T07:41:09;12.70;;;5.40;;
73557;SDS011;61829;53.286;10.434;2023-02-28T07:43:35;10.45;;;5.65;;
73557;SDS011;61829;53.286;10.434;2023-02-28T07:46:02;10.48;;;4.70;;
73557;SDS011;61829;53.286;10.434;2023-02-28T07:48:29;12.88;;;4.97;;
73557;SDS011;61829;53.286;10.434;2023-02-28T07:50:55;8.02;;;4.72;;
73557;SDS011;61829;53.286;10.434;2023-02-28T07:53:22;8.77;;;4.75;;
73557;SDS011;61829;53.286;10.434;2023-02-28T07:55:48;10.93;;;4.78;;
73557;SDS011;61829;53.286;10.434;2023-02-28T07:58:14;8.13;;;4.38;;
73557;SDS011;61829;53.286;10.434;2023-02-28T08:00:40;10.00;;;4.35;;
73557;SDS011;61829;53.286;10.434;2023-02-28T08:03:05;10.63;;;4.65;;
73557;SDS011;61829;53.286;10.434;2023-02-28T08:05:31;11.30;;;4.72;;
73557;SDS011;61829;53.286;10.434;2023-02-28T08:07:57;9.50;;;5.07;;
73557;SDS011;61829;53.286;10.434;2023-02-28T08:10:23;10.20;;;4.63;;
73557;SDS011;61829;53.286;10.434;2023-02-28T08:12:49;11.25;;;4.78;;
73557;SDS011;61829;53.286;10.434;2023-02-28T08:15:15;14.38;;;5.10;;
73557;SDS011;61829;53.286;10.434;2023-02-28T08:17:41;9.43;;;5.00;;
73557;SDS011;61829;53.286;10.434;2023-02-28T08:20:07;8.48;;;4.40;;
73557;SDS011;61829;53.286;10.434;2023-02-28T08:22:34;7.85;;;4.47;;
73557;SDS011;61829;53.286;10.434;2023-02-28T08:25:00;9.68;;;4.75;;
73557;SDS011;61829;53.286;10.434;2023-02-28T08:27:25;7.65;;;4.20;;
73557;SDS011;61829;53.286;10.434;2023-02-28T08:29:52;8.90;;;4.13;;
73557;SDS011;61829;53.286;10.434;2023-02-28T08:32:17;9.52;;;4.57;;
73557;SDS011;61829;53.286;10.434;2023-02-28T08:34:43;8.88;;;4.88;;
73557;SDS011;61829;53.286;10.434;2023-02-28T08:37:09;8.25;;;4.60;;
73557;SDS011;61829;53.286;10.434;2023-02-28T08:39:35;10.07;;;4.55;;
73557;SDS011;61829;53.286;10.434;2023-02-28T08:42:01;8.80;;;4.45;;
73557;SDS011;61829;53.286;10.434;2023-02-28T08:44:28;7.07;;;4.05;;
73557;SDS011;61829;53.286;10.434;2023-02-28T08:46:54;7.97;;;4.28;;
73557;SDS011;61829;53.286;10.434;2023-02-28T08:49:20;9.45;;;4.32;;
73557;SDS011;61829;53.286;10.434;2023-02-28T08:51:45;10.63;;;4.60;;
73557;SDS011;61829;53.286;10.434;2023-02-28T08:54:11;7.70;;;4.13;;
73557;SDS011;61829;53.286;10.434;2023-02-28T08:56:37;7.82;;;4.60;;
73557;SDS011;61829;53.286;10.434;2023-02-28T08:59:04;9.27;;;3.90;;
73557;SDS011;61829;53.286;10.434;2023-02-28T09:01:30;7.03;;;4.53;;
73557;SDS011;61829;53.286;10.434;2023-02-28T09:03:57;8.68;;;4.60;;
73557;SDS011;61829;53.286;10.434;2023-02-28T09:06:24;8.35;;;4.35;;
73557;SDS011;61829;53.286;10.434;2023-02-28T09:08:51;9.82;;;5.05;;
73557;SDS011;61829;53.286;10.434;2023-02-28T09:11:17;7.22;;;3.97;;
73557;SDS011;61829;53.286;10.434;2023-02-28T09:13:44;7.28;;;4.63;;
73557;SDS011;61829;53.286;10.434;2023-02-28T09:16:12;9.60;;;4.38;;
73557;SDS011;61829;53.286;10.434;2023-02-28T09:18:40;9.82;;;4.60;;
73557;SDS011;61829;53.286;10.434;2023-02-28T09:21:06;6.80;;;4.13;;
73557;SDS011;61829;53.286;10.434;2023-02-28T09:23:35;9.00;;;4.55;;
73557;SDS011;61829;53.286;10.434;2023-02-28T09:26:03;8.75;;;4.25;;
73557;SDS011;61829;53.286;10.434;2023-02-28T09:28:29;7.85;;;4.38;;
73557;SDS011;61829;53.286;10.434;2023-02-28T09:30:55;6.40;;;3.90;;
73557;SDS011;61829;53.286;10.434;2023-02-28T09:33:23;8.02;;;3.80;;
73557;SDS011;61829;53.286;10.434;2023-02-28T09:35:49;7.75;;;3.85;;
73557;SDS011;61829;53.286;10.434;2023-02-28T09:38:15;6.38;;;3.55;;
73557;SDS011;61829;53.286;10.434;2023-02-28T09:40:47;7.28;;;3.95;;
73557;SDS011;61829;53.286;10.434;2023-02-28T09:43:22;7.15;;;3.65;;
73557;SDS011;61829;53.286;10.434;2023-02-28T09:45:59;7.85;;;3.22;;
73557;SDS011;61829;53.286;10.434;2023-02-28T09:48:32;4.78;;;3.10;;
73557;SDS011;61829;53.286;10.434;2023-02-28T09:51:04;6.13;;;2.55;;
73557;SDS011;61829;53.286;10.434;2023-02-28T09:53:37;5.22;;;2.83;;
73557;SDS011;61829;53.286;10.434;2023-02-28T09:58:53;4.72;;;2.40;;
73557;SDS011;61829;53.286;10.434;2023-02-28T10:01:37;4.22;;;2.50;;
73557;SDS011;61829;53.286;10.434;2023-02-28T10:04:54;3.22;;;1.98;;
73557;SDS011;61829;53.286;10.434;2023-02-28T10:07:43;6.45;;;2.10;;
73557;SDS011;61829;53.286;10.434;2023-02-28T10:13:12;2.88;;;1.50;;
73557;SDS011;61829;53.286;10.434;2023-02-28T10:15:42;2.80;;;1.30;;
73557;SDS011;61829;53.286;10.434;2023-02-28T10:18:11;2.47;;;1.13;;
73557;SDS011;61829;53.286;10.434;2023-02-28T10:20:40;3.95;;;1.52;;
73557;SDS011;61829;53.286;10.434;2023-02-28T10:25:35;2.92;;;1.30;;
73557;SDS011;61829;53.286;10.434;2023-02-28T10:28:10;3.13;;;1.40;;
73557;SDS011;61829;53.286;10.434;2023-02-28T10:30:38;2.65;;;1.40;;
73557;SDS011;61829;53.286;10.434;2023-02-28T10:33:13;3.40;;;1.35;;
73557;SDS011;61829;53.286;10.434;2023-02-28T10:35:43;3.03;;;1.25;;
73557;SDS011;61829;53.286;10.434;2023-02-28T10:38:16;2.40;;;1.45;;
73557;SDS011;61829;53.286;10.434;2023-02-28T10:40:47;2.70;;;1.20;;
73557;SDS011;61829;53.286;10.434;2023-02-28T10:45:40;2.95;;;1.20;;
73557;SDS011;61829;53.286;10.434;2023-02-28T10:55:58;3.38;;;1.50;;
73557;SDS011;61829;53.286;10.434;2023-02-28T10:58:25;3.53;;;1.42;;
73557;SDS011;61829;53.286;10.434;2023-02-28T11:00:53;3.45;;;1.35;;
73557;SDS011;61829;53.286;10.434;2023-02-28T11:06:25;3.20;;;1.40;;
73557;SDS011;61829;53.286;10.434;2023-02-28T11:08:57;1.70;;;1.10;;
73557;SDS011;61829;53.286;10.434;2023-02-28T11:11:26;3.42;;;1.45;;
73557;SDS011;61829;53.286;10.434;2023-02-28T11:13:55;3.33;;;1.30;;
73557;SDS011;61829;53.286;10.434;2023-02-28T11:16:32;3.22;;;1.20;;
73557;SDS011;61829;53.286;10.434;2023-02-28T11:19:00;5.40;;;1.20;;
73557;SDS011;61829;53.286;10.434;2023-02-28T11:21:28;2.97;;;1.25;;
73557;SDS011;61829;53.286;10.434;2023-02-28T11:24:04;2.88;;;1.30;;
73557;SDS011;61829;53.286;10.434;2023-02-28T11:26:45;2.13;;;0.93;;
73557;SDS011;61829;53.286;10.434;2023-02-28T11:29:18;2.00;;;1.02;;
73557;SDS011;61829;53.286;10.434;2023-02-28T11:34:46;2.55;;;1.25;;
73557;SDS011;61829;53.286;10.434;2023-02-28T11:37:25;2.55;;;1.35;;
73557;SDS011;61829;53.286;10.434;2023-02-28T11:39:53;2.55;;;1.02;;
73557;SDS011;61829;53.286;10.434;2023-02-28T11:52:52;1.65;;;1.15;;
73557;SDS011;61829;53.286;10.434;2023-02-28T12:26:47;1.98;;;1.05;;
73557;SDS011;61829;53.286;10.434;2023-02-28T12:32:09;1.77;;;1.20;;
73557;SDS011;61829;53.286;10.434;2023-02-28T12:34:49;2.10;;;1.08;;
73557;SDS011;61829;53.286;10.434;2023-02-28T12:37:38;1.77;;;1.10;;
73557;SDS011;61829;53.286;10.434;2023-02-28T12:40:13;1.83;;;1.08;;
73557;SDS011;61829;53.286;10.434;2023-02-28T12:42:53;2.22;;;1.38;;
73557;SDS011;61829;53.286;10.434;2023-02-28T12:48:20;4.25;;;1.23;;
73557;SDS011;61829;53.286;10.434;2023-02-28T12:50:51;2.10;;;1.20;;
73557;SDS011;61829;53.286;10.434;2023-02-28T12:58:29;4.03;;;1.10;;
73557;SDS011;61829;53.286;10.434;2023-02-28T13:03:52;3.55;;;1.23;;
73557;SDS011;61829;53.286;10.434;2023-02-28T13:09:25;3.35;;;1.13;;
73557;SDS011;61829;53.286;10.434;2023-02-28T13:11:52;4.18;;;1.58;;
73557;SDS011;61829;53.286;10.434;2023-02-28T13:22:37;3.72;;;1.25;;
73557;SDS011;61829;53.286;10.434;2023-02-28T13:27:50;4.65;;;1.20;;
73557;SDS011;61829;53.286;10.434;2023-02-28T13:35:47;2.03;;;1.20;;
73557;SDS011;61829;53.286;10.434;2023-02-28T13:38:16;2.42;;;1.10;;
73557;SDS011;61829;53.286;10.434;2023-02-28T13:40:47;3.88;;;2.20;;
73557;SDS011;61829;53.286;10.434;2023-02-28T13:43:12;2.70;;;1.13;;
73557;SDS011;61829;53.286;10.434;2023-02-28T13:46:03;5.22;;;1.20;;
73557;SDS011;61829;53.286;10.434;2023-02-28T13:48:30;2.10;;;1.20;;
73557;SDS011;61829;53.286;10.434;2023-02-28T13:50:56;2.35;;;1.40;;
73557;SDS011;61829;53.286;10.434;2023-02-28T13:53:30;2.97;;;1.42;;
73557;SDS011;61829;53.286;10.434;2023-02-28T13:56:10;3.40;;;1.23;;
73557;SDS011;61829;53.286;10.434;2023-02-28T14:06:55;3.30;;;1.20;;
73557;SDS011;61829;53.286;10.434;2023-02-28T14:09:27;3.72;;;1.42;;
73557;SDS011;61829;53.286;10.434;2023-02-28T14:15:02;2.17;;;0.88;;
73557;SDS011;61829;53.286;10.434;2023-02-28T14:17:31;2.78;;;1.20;;
73557;SDS011;61829;53.286;10.434;2023-02-28T14:19:57;1.80;;;1.08;;
73557;SDS011;61829;53.286;10.434;2023-02-28T14:25:09;2.42;;;0.95;;
73557;SDS011;61829;53.286;10.434;2023-02-28T14:27:58;2.15;;;0.82;;
73557;SDS011;61829;53.286;10.434;2023-02-28T14:34:03;2.88;;;1.10;;
73557;SDS011;61829;53.286;10.434;2023-02-28T14:36:43;1.33;;;0.98;;
73557;SDS011;61829;53.286;10.434;2023-02-28T14:39:12;2.30;;;1.08;;
73557;SDS011;61829;53.286;10.434;2023-02-28T14:41:41;1.83;;;1.00;;
73557;SDS011;61829;53.286;10.434;2023-02-28T14:44:18;1.80;;;1.05;;
73557;SDS011;61829;53.286;10.434;2023-02-28T14:46:47;3.63;;;1.13;;
73557;SDS011;61829;53.286;10.434;2023-02-28T14:49:37;1.45;;;0.70;;
73557;SDS011;61829;53.286;10.434;2023-02-28T14:54:43;2.70;;;1.10;;
73557;SDS011;61829;53.286;10.434;2023-02-28T15:00:23;1.40;;;0.90;;
73557;SDS011;61829;53.286;10.434;2023-02-28T15:02:50;4.43;;;0.98;;
73557;SDS011;61829;53.286;10.434;2023-02-28T15:05:23;2.72;;;1.30;;
73557;SDS011;61829;53.286;10.434;2023-02-28T15:08:05;1.63;;;0.98;;
73557;SDS011;61829;53.286;10.434;2023-02-28T15:10:42;2.10;;;0.90;;
73557;SDS011;61829;53.286;10.434;2023-02-28T15:13:12;1.88;;;0.90;;
73557;SDS011;61829;53.286;10.434;2023-02-28T15:15:49;2.10;;;0.90;;
73557;SDS011;61829;53.286;10.434;2023-02-28T15:21:03;2.40;;;0.98;;
73557;SDS011;61829;53.286;10.434;2023-02-28T15:23:33;2.55;;;0.93;;
73557;SDS011;61829;53.286;10.434;2023-02-28T15:26:01;2.40;;;1.30;;
73557;SDS011;61829;53.286;10.434;2023-02-28T15:28:27;1.98;;;1.00;;
73557;SDS011;61829;53.286;10.434;2023-02-28T15:31:02;2.78;;;1.13;;
73557;SDS011;61829;53.286;10.434;2023-02-28T15:33:51;2.63;;;1.02;;
73557;SDS011;61829;53.286;10.434;2023-02-28T15:36:24;3.50;;;1.20;;
73557;SDS011;61829;53.286;10.434;2023-02-28T15:38:53;2.08;;;1.00;;
73557;SDS011;61829;53.286;10.434;2023-02-28T15:41:35;2.13;;;1.00;;
73557;SDS011;61829;53.286;10.434;2023-02-28T15:49:39;3.97;;;1.40;;
73557;SDS011;61829;53.286;10.434;2023-02-28T15:52:13;1.92;;;1.10;;
73557;SDS011;61829;53.286;10.434;2023-02-28T15:54:41;2.85;;;1.00;;
73557;SDS011;61829;53.286;10.434;2023-02-28T15:57:13;1.70;;;1.20;;
73557;SDS011;61829;53.286;10.434;2023-02-28T15:59:45;2.45;;;1.17;;
73557;SDS011;61829;53.286;10.434;2023-02-28T16:02:22;1.55;;;1.05;;
73557;SDS011;61829;53.286;10.434;2023-02-28T16:05:00;2.90;;;1.10;;
73557;SDS011;61829;53.286;10.434;2023-02-28T16:07:38;4.05;;;1.23;;
73557;SDS011;61829;53.286;10.434;2023-02-28T16:10:07;2.90;;;1.20;;
73557;SDS011;61829;53.286;10.434;2023-02-28T16:12:35;2.53;;;1.20;;
73557;SDS011;61829;53.286;10.434;2023-02-28T16:15:07;2.97;;;1.23;;
73557;SDS011;61829;53.286;10.434;2023-02-28T16:17:42;2.45;;;1.10;;
73557;SDS011;61829;53.286;10.434;2023-02-28T16:20:15;2.28;;;1.20;;
73557;SDS011;61829;53.286;10.434;2023-02-28T16:22:43;1.88;;;1.00;;
73557;SDS011;61829;53.286;10.434;2023-02-28T16:25:15;3.83;;;1.42;;
73557;SDS011;61829;53.286;10.434;2023-02-28T16:27:44;3.15;;;1.20;;
73557;SDS011;61829;53.286;10.434;2023-02-28T16:30:16;2.65;;;1.13;;
73557;SDS011;61829;53.286;10.434;2023-02-28T16:32:45;2.67;;;1.40;;
73557;SDS011;61829;53.286;10.434;2023-02-28T16:35:11;5.93;;;2.10;;
73557;SDS011;61829;53.286;10.434;2023-02-28T16:37:40;4.80;;;2.47;;
73557;SDS011;61829;53.286;10.434;2023-02-28T16:40:08;7.60;;;3.08;;
73557;SDS011;61829;53.286;10.434;2023-02-28T16:42:39;11.95;;;4.20;;
73557;SDS011;61829;53.286;10.434;2023-02-28T16:45:05;12.13;;;4.85;;
73557;SDS011;61829;53.286;10.434;2023-02-28T16:47:35;11.55;;;4.32;;
73557;SDS011;61829;53.286;10.434;2023-02-28T16:50:01;9.43;;;3.80;;
73557;SDS011;61829;53.286;10.434;2023-02-28T16:52:27;7.55;;;3.55;;
73557;SDS011;61829;53.286;10.434;2023-02-28T16:54:52;7.47;;;2.75;;
73557;SDS011;61829;53.286;10.434;2023-02-28T16:59:47;8.38;;;3.28;;
73557;SDS011;61829;53.286;10.434;2023-02-28T17:02:16;5.63;;;2.45;;
73557;SDS011;61829;53.286;10.434;2023-02-28T17:04:44;5.03;;;2.30;;
73557;SDS011;61829;53.286;10.434;2023-02-28T17:07:11;6.75;;;2.22;;
73557;SDS011;61829;53.286;10.434;2023-02-28T17:09:39;3.92;;;1.90;;
73557;SDS011;61829;53.286;10.434;2023-02-28T17:12:06;5.30;;;2.25;;
73557;SDS011;61829;53.286;10.434;2023-02-28T17:14:44;5.68;;;2.20;;
73557;SDS011;61829;53.286;10.434;2023-02-28T17:17:15;5.15;;;2.20;;
73557;SDS011;61829;53.286;10.434;2023-02-28T17:19:43;5.82;;;2.13;;
73557;SDS011;61829;53.286;10.434;2023-02-28T17:22:09;4.55;;;1.88;;
73557;SDS011;61829;53.286;10.434;2023-02-28T17:24:36;4.22;;;2.10;;
73557;SDS011;61829;53.286;10.434;2023-02-28T17:27:01;5.38;;;2.20;;
73557;SDS011;61829;53.286;10.434;2023-02-28T17:29:28;5.65;;;2.00;;
73557;SDS011;61829;53.286;10.434;2023-02-28T17:31:54;4.35;;;2.53;;
73557;SDS011;61829;53.286;10.434;2023-02-28T17:34:21;4.75;;;2.30;;
73557;SDS011;61829;53.286;10.434;2023-02-28T17:36:48;5.80;;;2.78;;
73557;SDS011;61829;53.286;10.434;2023-02-28T17:39:17;8.50;;;2.90;;
73557;SDS011;61829;53.286;10.434;2023-02-28T17:41:50;5.95;;;2.47;;
73557;SDS011;61829;53.286;10.434;2023-02-28T17:44:17;6.93;;;2.95;;
73557;SDS011;61829;53.286;10.434;2023-02-28T17:46:44;7.25;;;3.10;;